createdAt,value
2017-12-10T00:00:24.420Z,0.20
2017-12-10T00:02:57.346Z,0.20
2017-12-10T00:05:30.713Z,0.20
2017-12-10T00:08:03.266Z,0.20
2017-12-10T00:10:35.860Z,0.20
2017-12-10T00:13:08.534Z,0.20
2017-12-10T00:15:41.132Z,0.20
2017-12-10T00:18:14.666Z,0.20
2017-12-10T00:20:47.686Z,0.20
2017-12-10T00:23:20.467Z,0.20
2017-12-10T00:25:53.252Z,0.20
2017-12-10T00:28:26.758Z,0.10
2017-12-10T00:30:59.440Z,0.10
2017-12-10T00:33:32.235Z,0.10
2017-12-10T00:36:04.817Z,0.10
2017-12-10T00:38:37.456Z,0.10
2017-12-10T00:41:10.171Z,0.20
2017-12-10T00:43:42.775Z,0.10
2017-12-10T00:46:16.512Z,0.10
2017-12-10T00:48:49.234Z,0.10
2017-12-10T00:51:22.119Z,0.10
2017-12-10T00:53:54.758Z,0.10
2017-12-10T00:56:27.692Z,0.10
2017-12-10T00:59:00.632Z,0.10
2017-12-10T01:01:33.220Z,0.10
2017-12-10T01:04:05.842Z,0.10
2017-12-10T01:06:38.450Z,0.00
2017-12-10T01:09:11.027Z,0.10
2017-12-10T01:11:43.780Z,0.00
2017-12-10T01:14:16.639Z,0.00
2017-12-10T01:16:49.286Z,0.00
2017-12-10T01:19:21.954Z,0.00
2017-12-10T01:21:54.612Z,0.00
2017-12-10T01:24:28.053Z,0.10
2017-12-10T01:27:00.692Z,0.10
2017-12-10T01:29:33.322Z,0.00
2017-12-10T01:32:05.943Z,0.00
2017-12-10T01:34:39.272Z,0.00
2017-12-10T01:37:11.846Z,0.00
2017-12-10T01:39:45.396Z,0.00
2017-12-10T01:42:18.256Z,0.00
2017-12-10T01:44:51.042Z,0.10
2017-12-10T01:47:23.825Z,0.10
2017-12-10T01:49:56.466Z,0.10
2017-12-10T01:52:29.031Z,0.10
2017-12-10T01:55:01.614Z,0.00
2017-12-10T01:57:34.134Z,0.00
2017-12-10T02:00:06.763Z,0.00
2017-12-10T02:02:39.327Z,0.00
2017-12-10T02:05:12.653Z,0.00
2017-12-10T02:07:45.491Z,0.00
2017-12-10T02:10:18.457Z,0.00
2017-12-10T02:12:51.937Z,0.00
2017-12-10T02:15:25.410Z,0.00
2017-12-10T02:17:58.391Z,0.00
2017-12-10T02:20:31.338Z,0.00
2017-12-10T02:23:04.330Z,0.00
2017-12-10T02:25:38.914Z,0.00
2017-12-10T02:28:15.282Z,0.00
2017-12-10T02:30:48.425Z,0.00
2017-12-10T02:33:22.059Z,0.00
2017-12-10T02:35:56.951Z,0.00
2017-12-10T02:38:30.744Z,0.00
2017-12-10T02:41:03.483Z,0.00
2017-12-10T02:43:36.400Z,0.00
2017-12-10T02:46:09.297Z,0.00
2017-12-10T02:48:42.187Z,0.00
2017-12-10T02:51:15.604Z,0.00
2017-12-10T02:53:49.680Z,0.00
2017-12-10T02:56:22.706Z,0.00
2017-12-10T02:58:55.624Z,0.00
2017-12-10T03:01:28.374Z,0.00
2017-12-10T03:04:01.046Z,0.00
2017-12-10T03:06:41.400Z,0.00
2017-12-10T03:09:15.781Z,0.00
2017-12-10T03:11:48.937Z,0.00
2017-12-10T03:14:21.984Z,-0.10
2017-12-10T03:16:54.812Z,0.00
2017-12-10T03:19:28.275Z,-0.10
2017-12-10T03:22:00.956Z,-0.10
2017-12-10T03:24:33.698Z,-0.10
2017-12-10T03:27:07.146Z,0.00
2017-12-10T03:29:39.841Z,-0.10
2017-12-10T03:32:12.778Z,0.00
2017-12-10T03:34:46.412Z,0.00
2017-12-10T03:37:20.305Z,0.00
2017-12-10T03:39:53.927Z,0.00
2017-12-10T03:42:26.571Z,-0.10
2017-12-10T03:45:00.116Z,-0.10
2017-12-10T03:47:32.862Z,-0.10
2017-12-10T03:50:05.775Z,-0.10
2017-12-10T03:52:38.617Z,-0.10
2017-12-10T03:55:13.037Z,-0.10
2017-12-10T03:57:48.928Z,-0.10
2017-12-10T04:00:22.530Z,-0.10
2017-12-10T04:02:55.394Z,-0.10
2017-12-10T04:05:29.489Z,-0.10
2017-12-10T04:08:02.285Z,-0.10
2017-12-10T04:10:35.014Z,-0.10
2017-12-10T04:13:08.205Z,0.00
2017-12-10T04:15:40.917Z,0.00
2017-12-10T04:18:13.782Z,0.00
2017-12-10T04:20:47.409Z,0.00
2017-12-10T04:23:20.479Z,0.00
2017-12-10T04:25:55.756Z,0.00
2017-12-10T04:28:29.630Z,0.00
2017-12-10T04:31:02.605Z,0.00
2017-12-10T04:33:37.333Z,0.00
2017-12-10T04:36:10.747Z,0.00
2017-12-10T04:38:43.465Z,0.00
2017-12-10T04:41:17.064Z,0.00
2017-12-10T04:43:49.743Z,0.00
2017-12-10T04:46:22.294Z,0.10
2017-12-10T04:48:54.976Z,0.10
2017-12-10T04:51:27.576Z,0.10
2017-12-10T04:54:00.189Z,0.00
2017-12-10T04:56:32.756Z,0.00
2017-12-10T04:59:05.398Z,0.00
2017-12-10T05:01:38.383Z,0.00
2017-12-10T05:04:11.050Z,0.10
2017-12-10T05:06:43.661Z,0.10
2017-12-10T05:09:16.292Z,0.10
2017-12-10T05:11:48.974Z,0.10
2017-12-10T05:14:21.667Z,0.10
2017-12-10T05:16:54.222Z,0.10
2017-12-10T05:19:26.921Z,0.10
2017-12-10T05:21:59.521Z,0.10
2017-12-10T05:24:32.157Z,0.10
2017-12-10T05:27:05.534Z,0.10
2017-12-10T05:29:38.220Z,0.10
2017-12-10T05:32:10.805Z,0.10
2017-12-10T05:34:44.133Z,0.10
2017-12-10T05:37:16.801Z,0.10
2017-12-10T05:39:49.396Z,0.10
2017-12-10T05:42:22.030Z,0.10
2017-12-10T05:44:55.523Z,0.10
2017-12-10T05:47:28.986Z,0.10
2017-12-10T05:50:01.540Z,0.10
2017-12-10T05:52:34.122Z,0.00
2017-12-10T05:55:06.690Z,0.10
2017-12-10T05:57:39.257Z,0.10
2017-12-10T06:00:11.842Z,0.00
2017-12-10T06:02:44.528Z,0.00
2017-12-10T06:05:17.257Z,0.00
2017-12-10T06:07:50.642Z,0.00
2017-12-10T06:10:23.252Z,0.00
2017-12-10T06:12:56.625Z,0.00
2017-12-10T06:15:29.432Z,0.00
2017-12-10T06:18:02.073Z,0.00
2017-12-10T06:20:34.667Z,0.00
2017-12-10T06:23:07.243Z,0.00
2017-12-10T06:25:40.646Z,-0.10
2017-12-10T06:28:14.078Z,-0.10
2017-12-10T06:30:46.904Z,-0.10
2017-12-10T06:33:19.484Z,-0.10
2017-12-10T06:35:52.840Z,-0.10
2017-12-10T06:38:25.406Z,-0.10
2017-12-10T06:40:58.051Z,-0.10
2017-12-10T06:43:31.394Z,-0.10
2017-12-10T06:46:03.961Z,-0.20
2017-12-10T06:48:36.520Z,-0.20
2017-12-10T06:51:09.137Z,-0.20
2017-12-10T06:53:41.653Z,-0.20
2017-12-10T06:56:15.187Z,-0.20
2017-12-10T06:58:47.803Z,-0.20
2017-12-10T07:01:20.441Z,-0.20
2017-12-10T07:03:53.048Z,-0.20
2017-12-10T07:06:25.611Z,-0.20
2017-12-10T07:08:58.205Z,-0.20
2017-12-10T07:11:30.845Z,-0.20
2017-12-10T07:14:03.397Z,-0.20
2017-12-10T07:16:36.032Z,-0.20
2017-12-10T07:19:08.594Z,-0.20
2017-12-10T07:21:41.266Z,-0.20
2017-12-10T07:24:13.882Z,-0.20
2017-12-10T07:26:49.430Z,-0.30
2017-12-10T07:29:22.008Z,-0.30
2017-12-10T07:31:54.759Z,-0.30
2017-12-10T07:34:27.468Z,-0.30
2017-12-10T07:37:00.939Z,-0.40
2017-12-10T07:39:33.577Z,-0.40
2017-12-10T07:42:06.645Z,-0.40
2017-12-10T07:44:39.235Z,-0.40
2017-12-10T07:47:11.898Z,-0.40
2017-12-10T07:49:44.447Z,-0.40
2017-12-10T07:52:17.049Z,-0.30
2017-12-10T07:54:50.400Z,-0.30
2017-12-10T07:57:23.047Z,-0.30
2017-12-10T07:59:56.482Z,-0.30
2017-12-10T08:02:29.706Z,-0.30
2017-12-10T08:05:02.564Z,-0.30
2017-12-10T08:07:35.258Z,-0.30
2017-12-10T08:10:07.916Z,-0.30
2017-12-10T08:12:43.841Z,-0.30
2017-12-10T08:15:16.710Z,-0.30
2017-12-10T08:17:49.647Z,-0.30
2017-12-10T08:20:23.173Z,-0.20
2017-12-10T08:23:00.037Z,-0.20
2017-12-10T08:25:35.048Z,-0.20
2017-12-10T08:28:07.917Z,-0.10
2017-12-10T08:30:45.723Z,-0.20
2017-12-10T08:33:19.221Z,-0.10
2017-12-10T08:35:51.966Z,-0.20
2017-12-10T08:38:25.541Z,-0.10
2017-12-10T08:40:58.453Z,-0.10
2017-12-10T08:43:32.912Z,-0.10
2017-12-10T08:46:10.298Z,-0.10
2017-12-10T08:48:42.921Z,-0.10
2017-12-10T08:51:16.325Z,-0.10
2017-12-10T08:53:49.054Z,-0.10
2017-12-10T08:56:21.775Z,-0.10
2017-12-10T08:58:54.605Z,-0.10
2017-12-10T09:01:27.258Z,-0.10
2017-12-10T09:04:07.779Z,-0.10
2017-12-10T09:06:45.400Z,-0.10
2017-12-10T09:09:18.308Z,-0.10
2017-12-10T09:11:51.204Z,-0.10
2017-12-10T09:14:23.910Z,-0.20
2017-12-10T09:16:56.797Z,-0.20
2017-12-10T09:19:31.663Z,-0.30
2017-12-10T09:22:06.341Z,-0.30
2017-12-10T09:24:39.985Z,-0.30
2017-12-10T09:27:17.771Z,-0.30
2017-12-10T09:29:58.760Z,-0.30
2017-12-10T09:32:31.657Z,-0.20
2017-12-10T09:35:04.482Z,-0.20
2017-12-10T09:37:37.163Z,-0.20
2017-12-10T09:40:10.066Z,-0.20
2017-12-10T09:42:43.254Z,-0.20
2017-12-10T09:45:18.444Z,-0.20
2017-12-10T09:47:52.070Z,-0.20
2017-12-10T09:50:24.933Z,-0.20
2017-12-10T09:52:57.898Z,-0.20
2017-12-10T09:55:31.033Z,-0.20
2017-12-10T09:58:04.634Z,-0.20
2017-12-10T10:00:40.281Z,-0.20
2017-12-10T10:03:13.262Z,-0.20
2017-12-10T10:05:48.169Z,0.00
2017-12-10T10:08:20.956Z,-0.10
2017-12-10T10:10:53.630Z,0.00
2017-12-10T10:13:26.925Z,0.00
2017-12-10T10:15:59.729Z,0.00
2017-12-10T10:18:32.490Z,0.00
2017-12-10T10:21:07.093Z,0.00
2017-12-10T10:23:39.924Z,0.00
2017-12-10T10:26:12.747Z,-0.10
2017-12-10T10:28:45.513Z,-0.10
2017-12-10T10:31:18.293Z,-0.10
2017-12-10T10:33:51.926Z,-0.10
2017-12-10T10:36:24.765Z,-0.10
2017-12-10T10:38:59.271Z,-0.10
2017-12-10T10:41:32.810Z,-0.10
2017-12-10T10:44:06.411Z,-0.10
2017-12-10T10:46:40.061Z,-0.10
2017-12-10T10:49:12.862Z,-0.10
2017-12-10T10:51:45.706Z,-0.10
2017-12-10T10:54:18.649Z,-0.10
2017-12-10T10:56:51.797Z,-0.10
2017-12-10T10:59:24.587Z,-0.10
2017-12-10T11:02:00.501Z,-0.10
2017-12-10T11:04:35.947Z,-0.10
2017-12-10T11:07:18.815Z,-0.10
2017-12-10T11:09:51.462Z,-0.10
2017-12-10T11:12:24.264Z,-0.10
2017-12-10T11:14:57.863Z,-0.10
2017-12-10T11:17:31.911Z,0.00
2017-12-10T11:20:09.244Z,0.00
2017-12-10T11:22:47.690Z,0.00
2017-12-10T11:25:20.766Z,0.00
2017-12-10T11:27:54.537Z,-0.10
2017-12-10T11:30:27.206Z,-0.10
2017-12-10T11:33:00.766Z,-0.20
2017-12-10T11:35:33.618Z,-0.20
2017-12-10T11:38:10.257Z,-0.20
2017-12-10T11:40:42.996Z,-0.30
2017-12-10T11:45:54.902Z,-0.30
2017-12-10T11:48:28.609Z,-0.20
2017-12-10T11:51:01.409Z,-0.30
2017-12-10T11:53:34.316Z,-0.20
2017-12-10T11:56:08.023Z,-0.20
2017-12-10T11:58:40.881Z,-0.20
2017-12-10T12:01:14.311Z,-0.20
2017-12-10T12:03:47.998Z,-0.20
2017-12-10T12:06:20.862Z,-0.20
2017-12-10T12:08:53.815Z,-0.10
2017-12-10T12:11:26.629Z,-0.10
2017-12-10T12:13:59.399Z,-0.10
2017-12-10T12:16:36.620Z,-0.20
2017-12-10T12:19:18.390Z,-0.20
2017-12-10T12:21:51.980Z,-0.20
2017-12-10T12:24:24.959Z,-0.20
2017-12-10T12:26:57.680Z,-0.20
2017-12-10T12:29:30.620Z,-0.20
2017-12-10T12:32:04.641Z,-0.10
2017-12-10T12:37:20.037Z,-0.10
2017-12-10T12:39:53.616Z,-0.10
2017-12-10T12:42:26.802Z,-0.10
2017-12-10T12:45:00.424Z,-0.10
2017-12-10T12:47:33.168Z,-0.10
2017-12-10T12:50:06.727Z,-0.10
2017-12-10T12:52:39.571Z,-0.10
2017-12-10T12:55:12.274Z,-0.10
2017-12-10T12:57:45.077Z,-0.10
2017-12-10T13:00:18.839Z,-0.10
2017-12-10T13:02:53.474Z,-0.20
2017-12-10T13:05:26.254Z,-0.10
2017-12-10T13:07:58.922Z,-0.10
2017-12-10T13:10:31.522Z,-0.10
2017-12-10T13:13:04.098Z,-0.10
2017-12-10T13:15:36.802Z,-0.10
2017-12-10T13:18:10.091Z,-0.10
2017-12-10T13:20:43.575Z,-0.20
2017-12-10T13:23:16.254Z,-0.20
2017-12-10T13:25:49.117Z,-0.20
2017-12-10T13:28:21.703Z,-0.20
2017-12-10T13:30:54.570Z,-0.20
2017-12-10T13:33:27.196Z,-0.20
2017-12-10T13:36:00.598Z,-0.10
2017-12-10T13:38:33.896Z,-0.10
2017-12-10T13:41:07.346Z,-0.20
2017-12-10T13:43:40.250Z,-0.20
2017-12-10T13:46:13.778Z,-0.20
2017-12-10T13:48:46.706Z,-0.20
2017-12-10T13:51:22.271Z,-0.20
2017-12-10T13:53:55.023Z,-0.20
2017-12-10T13:56:29.081Z,-0.20
2017-12-10T13:59:01.971Z,-0.20
2017-12-10T14:01:35.462Z,-0.20
2017-12-10T14:04:16.816Z,-0.30
2017-12-10T14:06:49.991Z,-0.30
2017-12-10T14:09:23.059Z,-0.30
2017-12-10T14:11:56.485Z,-0.30
2017-12-10T14:14:29.245Z,-0.30
2017-12-10T14:17:01.921Z,-0.30
2017-12-10T14:19:35.658Z,-0.30
2017-12-10T14:22:08.395Z,-0.30
2017-12-10T14:24:40.941Z,-0.30
2017-12-10T14:27:15.858Z,-0.30
2017-12-10T14:29:50.719Z,-0.40
2017-12-10T14:32:24.138Z,-0.30
2017-12-10T14:34:57.987Z,-0.40
2017-12-10T14:37:36.550Z,-0.40
2017-12-10T14:40:09.325Z,-0.40
2017-12-10T14:42:41.961Z,-0.40
2017-12-10T14:45:14.497Z,-0.40
2017-12-10T14:47:47.290Z,-0.50
2017-12-10T14:50:20.116Z,-0.40
2017-12-10T14:52:53.681Z,-0.50
2017-12-10T14:55:27.181Z,-0.50
2017-12-10T14:58:03.595Z,-0.50
2017-12-10T15:00:36.719Z,-0.50
2017-12-10T15:03:10.029Z,-0.50
2017-12-10T15:05:50.428Z,-0.50
2017-12-10T15:08:25.969Z,-0.50
2017-12-10T15:11:01.443Z,-0.50
2017-12-10T15:13:36.244Z,-0.50
2017-12-10T15:16:09.845Z,-0.60
2017-12-10T15:18:45.529Z,-0.60
2017-12-10T15:21:24.326Z,-0.70
2017-12-10T15:23:58.332Z,-0.80
2017-12-10T15:26:32.325Z,-0.80
2017-12-10T15:29:05.685Z,-0.80
2017-12-10T15:31:38.469Z,-0.90
2017-12-10T15:34:11.712Z,-0.90
2017-12-10T15:36:45.967Z,-0.90
2017-12-10T15:39:19.423Z,-1.00
2017-12-10T15:41:52.162Z,-1.00
2017-12-10T15:44:28.423Z,-1.10
2017-12-10T15:47:01.891Z,-1.10
2017-12-10T15:49:34.981Z,-1.10
2017-12-10T15:52:08.928Z,-1.10
2017-12-10T15:54:43.099Z,-1.10
2017-12-10T15:57:16.672Z,-1.20
2017-12-10T15:59:50.774Z,-1.20
2017-12-10T16:02:26.376Z,-1.20
2017-12-10T16:05:00.953Z,-1.20
2017-12-10T16:07:38.654Z,-1.20
2017-12-10T16:10:12.715Z,-1.20
2017-12-10T16:12:45.450Z,-1.20
2017-12-10T16:15:18.766Z,-1.30
2017-12-10T16:17:52.938Z,-1.30
2017-12-10T16:20:25.776Z,-1.30
2017-12-10T16:22:58.550Z,-1.30
2017-12-10T16:25:31.273Z,-1.30
2017-12-10T16:28:04.674Z,-1.30
2017-12-10T16:30:38.120Z,-1.30
2017-12-10T16:33:10.932Z,-1.30
2017-12-10T16:35:43.561Z,-1.30
2017-12-10T16:38:18.134Z,-1.30
2017-12-10T16:40:51.689Z,-1.30
2017-12-10T16:43:24.401Z,-1.30
2017-12-10T16:45:57.071Z,-1.30
2017-12-10T16:48:29.735Z,-1.20
2017-12-10T16:51:02.332Z,-1.30
2017-12-10T16:53:34.917Z,-1.30
2017-12-10T16:56:07.618Z,-1.30
2017-12-10T16:58:41.071Z,-1.30
2017-12-10T17:01:13.754Z,-1.30
2017-12-10T17:03:46.430Z,-1.30
2017-12-10T17:06:21.237Z,-1.30
2017-12-10T17:08:54.235Z,-1.30
2017-12-10T17:11:27.208Z,-1.20
2017-12-10T17:13:59.990Z,-1.30
2017-12-10T17:16:32.590Z,-1.30
2017-12-10T17:19:05.221Z,-1.30
2017-12-10T17:21:39.781Z,-1.40
2017-12-10T17:24:12.412Z,-1.40
2017-12-10T17:26:45.462Z,-1.30
2017-12-10T17:29:22.064Z,-1.40
2017-12-10T17:32:07.904Z,-1.40
2017-12-10T17:34:41.118Z,-1.40
2017-12-10T17:37:16.580Z,-1.40
2017-12-10T17:39:50.469Z,-1.40
2017-12-10T17:42:23.306Z,-1.40
2017-12-10T17:44:56.205Z,-1.40
2017-12-10T17:47:29.010Z,-1.50
2017-12-10T17:50:02.025Z,-1.50
2017-12-10T17:52:34.702Z,-1.50
2017-12-10T17:55:07.362Z,-1.50
2017-12-10T17:57:40.115Z,-1.50
2017-12-10T18:00:29.417Z,-1.50
2017-12-10T18:03:03.999Z,-1.50
2017-12-10T18:05:37.831Z,-1.50
2017-12-10T18:08:10.431Z,-1.50
2017-12-10T18:10:43.092Z,-1.40
2017-12-10T18:13:15.859Z,-1.50
2017-12-10T18:15:48.760Z,-1.50
2017-12-10T18:18:22.743Z,-1.60
2017-12-10T18:20:56.081Z,-1.60
2017-12-10T18:23:28.906Z,-1.50
2017-12-10T18:26:01.741Z,-1.60
2017-12-10T18:28:35.932Z,-1.60
2017-12-10T18:31:08.649Z,-1.70
2017-12-10T18:33:42.267Z,-1.70
2017-12-10T18:36:16.018Z,-1.70
2017-12-10T18:38:55.859Z,-1.70
2017-12-10T18:41:29.381Z,-1.60
2017-12-10T18:44:02.212Z,-1.70
2017-12-10T18:46:35.661Z,-1.60
2017-12-10T18:49:08.398Z,-1.70
2017-12-10T18:51:41.757Z,-1.70
2017-12-10T18:54:17.007Z,-1.70
2017-12-10T18:56:50.984Z,-1.70
2017-12-10T18:59:23.966Z,-1.70
2017-12-10T19:01:57.034Z,-1.70
2017-12-10T19:04:30.057Z,-1.70
2017-12-10T19:07:03.517Z,-1.70
2017-12-10T19:09:51.012Z,-1.70
2017-12-10T19:12:26.811Z,-1.70
2017-12-10T19:15:00.216Z,-1.70
2017-12-10T19:17:37.539Z,-1.60
2017-12-10T19:20:13.941Z,-1.60
2017-12-10T19:22:46.728Z,-1.60
2017-12-10T19:25:21.625Z,-1.70
2017-12-10T19:27:54.770Z,-1.70
2017-12-10T19:30:27.885Z,-1.70
2017-12-10T19:33:02.310Z,-1.70
2017-12-10T19:35:35.732Z,-1.80
2017-12-10T19:38:09.511Z,-1.80
2017-12-10T19:40:42.720Z,-1.90
2017-12-10T19:43:15.524Z,-1.80
2017-12-10T19:45:49.874Z,-1.80
2017-12-10T19:48:23.508Z,-1.90
2017-12-10T19:50:57.373Z,-1.90
2017-12-10T19:53:30.386Z,-1.90
2017-12-10T19:56:03.167Z,-1.90
2017-12-10T19:58:35.685Z,-1.80
2017-12-10T20:01:09.001Z,-1.90
2017-12-10T20:03:41.555Z,-1.90
2017-12-10T20:06:14.488Z,-1.90
2017-12-10T20:08:47.550Z,-1.90
2017-12-10T20:11:21.990Z,-1.90
2017-12-10T20:13:55.095Z,-1.90
2017-12-10T20:16:28.106Z,-1.90
2017-12-10T20:19:00.734Z,-1.90
2017-12-10T20:21:34.396Z,-1.90
2017-12-10T20:24:07.262Z,-1.90
2017-12-10T20:26:40.903Z,-1.80
2017-12-10T20:29:13.626Z,-1.90
2017-12-10T20:31:46.349Z,-1.80
2017-12-10T20:34:20.066Z,-1.80
2017-12-10T20:36:53.168Z,-1.80
2017-12-10T20:39:27.013Z,-1.80
2017-12-10T20:42:00.173Z,-1.80
2017-12-10T20:44:32.839Z,-1.80
2017-12-10T20:47:05.438Z,-1.80
2017-12-10T20:49:38.085Z,-1.80
2017-12-10T20:52:10.670Z,-1.80
2017-12-10T20:54:43.282Z,-1.80
2017-12-10T20:57:16.075Z,-1.80
2017-12-10T20:59:49.249Z,-1.70
2017-12-10T21:02:27.033Z,-1.70
2017-12-10T21:04:59.900Z,-1.70
2017-12-10T21:07:32.485Z,-1.70
2017-12-10T21:10:05.336Z,-1.80
2017-12-10T21:12:37.916Z,-1.80
2017-12-10T21:15:11.337Z,-1.70
2017-12-10T21:17:44.238Z,-1.70
2017-12-10T21:20:18.019Z,-1.70
2017-12-10T21:22:50.930Z,-1.70
2017-12-10T21:25:23.791Z,-1.70
2017-12-10T21:27:56.632Z,-1.70
2017-12-10T21:30:30.896Z,-1.70
2017-12-10T21:33:03.586Z,-1.60
2017-12-10T21:35:36.254Z,-1.60
2017-12-10T21:38:08.902Z,-1.60
2017-12-10T21:40:41.446Z,-1.60
2017-12-10T21:43:13.994Z,-1.60
2017-12-10T21:45:46.632Z,-1.60
2017-12-10T21:48:19.404Z,-1.60
2017-12-10T21:50:52.118Z,-1.60
2017-12-10T21:53:24.795Z,-1.50
2017-12-10T21:55:58.353Z,-1.50
2017-12-10T21:58:31.034Z,-1.60
2017-12-10T22:01:06.202Z,-1.50
2017-12-10T22:03:38.799Z,-1.50
2017-12-10T22:06:11.421Z,-1.50
2017-12-10T22:08:44.052Z,-1.50
2017-12-10T22:11:17.108Z,-1.50
2017-12-10T22:13:50.190Z,-1.50
2017-12-10T22:16:23.013Z,-1.50
2017-12-10T22:18:55.839Z,-1.50
2017-12-10T22:21:28.423Z,-1.50
2017-12-10T22:24:01.037Z,-1.40
2017-12-10T22:26:34.340Z,-1.40
2017-12-10T22:29:06.921Z,-1.40
2017-12-10T22:31:39.474Z,-1.40
2017-12-10T22:34:12.025Z,-1.40
2017-12-10T22:36:45.444Z,-1.30
2017-12-10T22:39:18.264Z,-1.40
2017-12-10T22:41:51.030Z,-1.30
2017-12-10T22:44:24.147Z,-1.30
2017-12-10T22:47:01.329Z,-1.30
2017-12-10T22:49:36.019Z,-1.30
2017-12-10T22:52:08.778Z,-1.20
2017-12-10T22:54:41.374Z,-1.20
2017-12-10T22:57:13.990Z,-1.20
2017-12-10T22:59:46.644Z,-1.10
2017-12-10T23:02:19.580Z,-1.10
2017-12-10T23:04:54.733Z,-1.10
2017-12-10T23:07:29.396Z,-1.00
2017-12-10T23:10:02.957Z,-1.00
2017-12-10T23:12:44.448Z,-1.00
2017-12-10T23:15:18.669Z,-0.90
2017-12-10T23:17:52.292Z,-0.90
2017-12-10T23:20:27.493Z,-0.80
2017-12-10T23:23:00.160Z,-0.80
2017-12-10T23:25:33.496Z,-0.80
2017-12-10T23:28:06.027Z,-0.80
2017-12-10T23:30:38.581Z,-0.80
2017-12-10T23:33:11.150Z,-0.70
2017-12-10T23:35:43.713Z,-0.70
2017-12-10T23:38:16.229Z,-0.70
2017-12-10T23:40:49.007Z,-0.70
2017-12-10T23:43:22.534Z,-0.70
2017-12-10T23:45:55.354Z,-0.70
2017-12-10T23:48:28.722Z,-0.70
2017-12-10T23:51:01.325Z,-0.70
2017-12-10T23:53:39.686Z,-0.70
2017-12-10T23:56:12.997Z,-0.60
2017-12-10T23:58:45.530Z,-0.60
